createdAt,value
2018-09-05T00:01:25.131Z,23.52
2018-09-05T00:03:53.201Z,22.22
2018-09-05T00:06:21.530Z,24.32
2018-09-05T00:08:49.598Z,23.90
2018-09-05T00:11:17.710Z,27.48
2018-09-05T00:13:45.796Z,25.55
2018-09-05T00:16:13.872Z,24.63
2018-09-05T00:18:42.017Z,27.20
2018-09-05T00:21:10.094Z,26.68
2018-09-05T00:23:38.181Z,25.10
2018-09-05T00:26:06.253Z,24.85
2018-09-05T00:28:34.334Z,24.92
2018-09-05T00:31:02.706Z,24.85
2018-09-05T00:33:30.770Z,24.52
2018-09-05T00:35:58.835Z,24.12
2018-09-05T00:38:26.907Z,24.02
2018-09-05T00:40:54.980Z,25.60
2018-09-05T00:43:23.322Z,23.50
2018-09-05T00:45:51.431Z,30.50
2018-09-05T00:48:19.495Z,25.27
2018-09-05T00:50:47.554Z,23.50
2018-09-05T00:53:15.626Z,25.72
2018-09-05T00:55:44.063Z,23.87
2018-09-05T00:58:12.146Z,23.15
2018-09-05T01:00:40.275Z,24.75
2018-09-05T01:03:08.379Z,25.05
2018-09-05T01:05:36.471Z,26.15
2018-09-05T01:08:33.411Z,24.97
2018-09-05T01:11:01.511Z,24.82
2018-09-05T01:13:29.647Z,22.93
2018-09-05T01:15:57.755Z,24.32
2018-09-05T01:18:25.878Z,24.95
2018-09-05T01:20:54.007Z,24.18
2018-09-05T01:23:22.066Z,24.87
2018-09-05T01:25:50.188Z,25.00
2018-09-05T01:28:18.562Z,23.70
2018-09-05T01:30:46.623Z,25.80
2018-09-05T01:33:14.951Z,23.80
2018-09-05T01:35:43.030Z,22.65
2018-09-05T01:38:11.098Z,25.55
2018-09-05T01:40:39.174Z,24.63
2018-09-05T01:43:07.336Z,24.37
2018-09-05T01:45:35.675Z,28.33
2018-09-05T01:48:03.744Z,24.50
2018-09-05T01:50:37.710Z,24.12
2018-09-05T01:53:05.779Z,23.90
2018-09-05T01:55:33.882Z,23.42
2018-09-05T01:58:01.954Z,22.80
2018-09-05T02:00:32.950Z,25.92
2018-09-05T02:03:01.307Z,23.90
2018-09-05T02:05:29.435Z,23.02
2018-09-05T02:07:57.534Z,24.18
2018-09-05T02:10:25.659Z,24.63
2018-09-05T02:12:53.770Z,26.97
2018-09-05T02:15:22.199Z,24.23
2018-09-05T02:17:50.275Z,20.48
2018-09-05T02:20:18.353Z,22.35
2018-09-05T02:22:46.436Z,23.87
2018-09-05T02:25:14.518Z,23.77
2018-09-05T02:27:42.998Z,23.42
2018-09-05T02:30:11.103Z,23.90
2018-09-05T02:32:39.200Z,23.25
2018-09-05T02:35:07.336Z,23.90
2018-09-05T02:37:35.410Z,22.98
2018-09-05T02:40:03.552Z,23.90
2018-09-05T02:42:31.658Z,22.35
2018-09-05T02:44:59.762Z,23.25
2018-09-05T02:47:27.870Z,22.62
2018-09-05T02:49:55.969Z,23.47
2018-09-05T02:52:24.291Z,27.03
2018-09-05T02:54:52.393Z,25.25
2018-09-05T02:57:20.470Z,24.00
2018-09-05T02:59:48.546Z,24.60
2018-09-05T03:02:16.638Z,22.60
2018-09-05T03:04:45.071Z,23.18
2018-09-05T03:07:13.163Z,22.77
2018-09-05T03:09:41.251Z,24.30
2018-09-05T03:12:09.346Z,23.67
2018-09-05T03:14:37.540Z,23.45
2018-09-05T03:17:05.933Z,25.02
2018-09-05T03:19:34.007Z,23.38
2018-09-05T03:22:02.098Z,22.93
2018-09-05T03:24:30.198Z,24.45
2018-09-05T03:26:58.294Z,26.97
2018-09-05T03:29:26.722Z,24.98
2018-09-05T03:31:54.796Z,24.32
2018-09-05T03:34:22.871Z,22.87
2018-09-05T03:36:50.956Z,22.85
2018-09-05T03:39:19.058Z,24.40
2018-09-05T03:41:47.479Z,23.02
2018-09-05T03:44:15.585Z,23.07
2018-09-05T03:46:43.691Z,23.47
2018-09-05T03:49:11.887Z,23.92
2018-09-05T03:51:40.109Z,22.75
2018-09-05T03:54:08.549Z,24.30
2018-09-05T03:56:36.665Z,25.20
2018-09-05T03:59:04.786Z,22.33
2018-09-05T04:01:32.893Z,28.25
2018-09-05T04:04:00.974Z,21.60
2018-09-05T04:06:29.074Z,24.32
2018-09-05T04:08:57.196Z,23.75
2018-09-05T04:11:25.314Z,23.98
2018-09-05T04:13:53.393Z,23.27
2018-09-05T04:16:21.491Z,24.72
2018-09-05T04:18:49.631Z,23.38
2018-09-05T04:21:17.712Z,23.50
2018-09-05T04:23:48.638Z,23.80
2018-09-05T04:26:18.004Z,23.75
2018-09-05T04:28:46.105Z,25.10
2018-09-05T04:31:14.994Z,24.57
2018-09-05T04:33:43.578Z,24.92
2018-09-05T04:36:13.268Z,27.67
2018-09-05T04:38:42.163Z,24.55
2018-09-05T04:41:10.267Z,24.70
2018-09-05T04:43:38.405Z,25.35
2018-09-05T04:46:06.674Z,25.30
2018-09-05T04:48:34.822Z,25.50
2018-09-05T04:51:03.015Z,24.65
2018-09-05T04:53:31.187Z,23.65
2018-09-05T04:55:59.278Z,21.82
2018-09-05T04:58:27.442Z,26.02
2018-09-05T05:00:55.715Z,23.67
2018-09-05T05:03:23.882Z,23.18
2018-09-05T05:05:52.016Z,24.07
2018-09-05T05:08:20.064Z,26.53
2018-09-05T05:10:48.825Z,22.90
2018-09-05T05:13:17.036Z,25.10
2018-09-05T05:15:45.134Z,23.55
2018-09-05T05:18:13.230Z,23.45
2018-09-05T05:20:41.359Z,22.55
2018-09-05T05:23:09.434Z,23.60
2018-09-05T05:25:37.531Z,23.57
2018-09-05T05:28:05.764Z,24.70
2018-09-05T05:30:33.891Z,25.17
2018-09-05T05:33:01.946Z,26.15
2018-09-05T05:35:30.025Z,26.95
2018-09-05T05:37:58.086Z,26.80
2018-09-05T05:40:26.294Z,27.00
2018-09-05T05:42:54.382Z,25.20
2018-09-05T05:45:22.472Z,33.33
2018-09-05T05:47:50.555Z,33.75
2018-09-05T05:50:18.630Z,27.25
2018-09-05T05:52:46.715Z,29.10
2018-09-05T05:55:14.886Z,31.40
2018-09-05T05:57:43.347Z,29.87
2018-09-05T06:00:11.465Z,29.48
2018-09-05T06:02:39.575Z,30.37
2018-09-05T06:05:07.687Z,27.60
2018-09-05T06:07:35.837Z,30.60
2018-09-05T06:10:03.934Z,29.98
2018-09-05T06:12:32.082Z,29.37
2018-09-05T06:15:00.171Z,31.52
2018-09-05T06:17:28.298Z,31.17
2018-09-05T06:19:56.327Z,28.00
2018-09-05T06:22:24.767Z,36.23
2018-09-05T06:24:52.888Z,30.80
2018-09-05T06:27:20.987Z,31.42
2018-09-05T06:29:49.080Z,31.40
2018-09-05T06:32:17.175Z,31.35
2018-09-05T06:34:45.247Z,33.18
2018-09-05T06:37:13.338Z,33.25
2018-09-05T06:39:41.781Z,32.35
2018-09-05T06:42:09.854Z,32.08
2018-09-05T06:44:37.943Z,32.43
2018-09-05T06:47:06.015Z,33.50
2018-09-05T06:49:34.652Z,34.40
2018-09-05T06:52:02.743Z,37.90
2018-09-05T06:54:30.824Z,32.25
2018-09-05T06:56:58.890Z,39.80
2018-09-05T06:59:27.050Z,29.92
2018-09-05T07:01:55.152Z,31.40
2018-09-05T07:04:23.224Z,32.55
2018-09-05T07:06:51.355Z,30.77
2018-09-05T07:09:19.566Z,30.82
2018-09-05T07:11:47.673Z,28.57
2018-09-05T07:14:15.862Z,28.17
2018-09-05T07:16:43.889Z,26.55
2018-09-05T07:19:12.647Z,25.30
2018-09-05T07:21:40.742Z,25.65
2018-09-05T07:24:08.820Z,24.90
2018-09-05T07:26:37.647Z,25.30
2018-09-05T07:29:06.059Z,23.32
2018-09-05T07:31:34.173Z,28.03
2018-09-05T07:34:02.256Z,22.73
2018-09-05T07:36:30.338Z,23.52
2018-09-05T07:38:58.818Z,21.93
2018-09-05T07:41:26.918Z,23.12
2018-09-05T07:43:54.994Z,24.02
2018-09-05T07:46:23.101Z,23.70
2018-09-05T07:48:51.198Z,22.95
2018-09-05T07:51:20.452Z,22.80
2018-09-05T07:53:48.678Z,23.30
2018-09-05T07:56:16.718Z,23.32
2018-09-05T07:58:44.796Z,23.52
2018-09-05T08:01:13.076Z,24.77
2018-09-05T08:03:41.505Z,29.40
2018-09-05T08:06:09.615Z,24.32
2018-09-05T08:08:37.731Z,23.52
2018-09-05T08:11:05.960Z,25.77
2018-09-05T08:13:34.110Z,25.08
2018-09-05T08:16:02.485Z,25.45
2018-09-05T08:18:30.578Z,23.95
2018-09-05T08:20:58.654Z,26.02
2018-09-05T08:23:26.759Z,26.33
2018-09-05T08:25:54.982Z,27.50
2018-09-05T08:28:23.074Z,26.57
2018-09-05T08:30:51.204Z,27.00
2018-09-05T08:33:19.573Z,25.50
2018-09-05T08:35:47.958Z,24.05
2018-09-05T08:38:15.864Z,21.37
2018-09-05T08:40:43.864Z,19.92
2018-09-05T08:43:11.947Z,19.48
2018-09-05T08:45:40.279Z,19.92
2018-09-05T08:48:08.237Z,20.12
2018-09-05T08:50:36.244Z,19.50
2018-09-05T08:53:04.386Z,20.00
2018-09-05T08:55:32.451Z,20.95
2018-09-05T08:58:00.583Z,20.50
2018-09-05T09:00:28.654Z,20.68
2018-09-05T09:02:56.783Z,22.00
2018-09-05T09:05:24.882Z,21.40
2018-09-05T09:07:52.979Z,20.68
2018-09-05T09:10:21.127Z,21.30
2018-09-05T09:12:49.195Z,20.25
2018-09-05T09:15:17.274Z,19.92
2018-09-05T09:17:45.362Z,25.32
2018-09-05T09:20:13.431Z,20.17
2018-09-05T09:22:41.515Z,19.25
2018-09-05T09:25:09.590Z,20.08
2018-09-05T09:27:37.719Z,20.27
2018-09-05T09:30:05.958Z,20.97
2018-09-05T09:32:34.041Z,22.35
2018-09-05T09:35:02.123Z,21.62
2018-09-05T09:37:30.225Z,21.85
2018-09-05T09:39:58.326Z,20.72
2018-09-05T09:42:26.380Z,19.17
2018-09-05T09:44:54.463Z,22.42
2018-09-05T09:47:22.518Z,21.55
2018-09-05T09:49:50.594Z,24.75
2018-09-05T09:52:20.926Z,21.77
2018-09-05T09:54:50.335Z,20.25
2018-09-05T09:57:18.460Z,18.70
2018-09-05T09:59:46.528Z,18.45
2018-09-05T10:02:20.094Z,18.07
2018-09-05T10:04:53.683Z,20.45
2018-09-05T10:07:27.174Z,18.15
2018-09-05T10:09:59.668Z,18.15
2018-09-05T10:12:33.112Z,18.02
2018-09-05T10:15:06.457Z,18.42
2018-09-05T10:17:36.774Z,19.20
2018-09-05T10:20:05.090Z,19.23
2018-09-05T10:22:33.357Z,21.07
2018-09-05T10:25:01.458Z,20.32
2018-09-05T10:27:29.791Z,19.30
2018-09-05T10:29:58.445Z,22.67
2018-09-05T10:32:26.743Z,18.37
2018-09-05T10:34:55.637Z,19.05
2018-09-05T10:37:23.794Z,19.42
2018-09-05T10:39:51.891Z,18.15
2018-09-05T10:42:20.020Z,18.30
2018-09-05T10:44:48.093Z,18.52
2018-09-05T10:47:16.178Z,18.37
2018-09-05T10:49:44.250Z,17.67
2018-09-05T10:52:12.327Z,17.15
2018-09-05T10:54:40.418Z,17.17
2018-09-05T10:57:08.512Z,16.85
2018-09-05T10:59:36.626Z,15.38
2018-09-05T11:02:04.699Z,17.77
2018-09-05T11:04:32.778Z,17.17
2018-09-05T11:07:00.858Z,14.65
2018-09-05T11:09:28.957Z,13.53
2018-09-05T11:11:57.075Z,13.83
2018-09-05T11:14:25.163Z,14.83
2018-09-05T11:16:53.326Z,12.90
2018-09-05T11:19:21.506Z,13.03
2018-09-05T11:21:49.670Z,12.45
2018-09-05T11:24:17.755Z,12.63
2018-09-05T11:26:45.843Z,12.63
2018-09-05T11:29:13.915Z,11.40
2018-09-05T11:31:41.990Z,12.50
2018-09-05T11:34:10.073Z,11.50
2018-09-05T11:36:38.194Z,12.98
2018-09-05T11:39:08.728Z,11.97
2018-09-05T11:41:36.935Z,11.08
2018-09-05T11:44:05.050Z,11.28
2018-09-05T11:46:33.165Z,11.97
2018-09-05T11:49:01.251Z,11.48
2018-09-05T11:51:29.322Z,11.30
2018-09-05T11:53:57.389Z,12.03
2018-09-05T11:56:25.552Z,12.07
2018-09-05T11:58:53.610Z,12.88
2018-09-05T12:01:21.694Z,11.93
2018-09-05T12:03:49.827Z,12.75
2018-09-05T12:06:17.897Z,11.97
2018-09-05T12:08:45.971Z,13.45
2018-09-05T12:11:14.048Z,12.28
2018-09-05T12:13:42.132Z,13.40
2018-09-05T12:16:10.216Z,15.08
2018-09-05T12:18:38.300Z,12.98
2018-09-05T12:21:06.543Z,13.68
2018-09-05T12:23:34.623Z,12.75
2018-09-05T12:26:02.718Z,13.72
2018-09-05T12:28:30.811Z,13.50
2018-09-05T12:30:58.882Z,12.93
2018-09-05T12:33:26.978Z,12.85
2018-09-05T12:35:55.050Z,12.95
2018-09-05T12:38:23.246Z,13.35
2018-09-05T12:40:51.239Z,12.68
2018-09-05T12:43:19.311Z,12.82
2018-09-05T12:45:47.371Z,14.18
2018-09-05T12:48:15.447Z,12.10
2018-09-05T12:50:43.527Z,14.53
2018-09-05T12:53:11.601Z,13.20
2018-09-05T12:55:39.671Z,12.80
2018-09-05T12:58:07.768Z,11.75
2018-09-05T13:00:35.856Z,12.25
2018-09-05T13:03:03.938Z,12.35
2018-09-05T13:05:32.091Z,12.70
2018-09-05T13:08:00.171Z,12.33
2018-09-05T13:10:28.246Z,13.15
2018-09-05T13:12:56.319Z,12.05
2018-09-05T13:15:24.415Z,12.75
2018-09-05T13:17:52.503Z,13.95
2018-09-05T13:20:20.587Z,13.75
2018-09-05T13:22:48.732Z,11.33
2018-09-05T13:25:16.746Z,11.75
2018-09-05T13:27:44.843Z,12.07
2018-09-05T13:30:12.963Z,11.20
2018-09-05T13:32:41.071Z,11.15
2018-09-05T13:35:09.476Z,11.55
2018-09-05T13:37:37.597Z,11.65
2018-09-05T13:40:05.667Z,11.28
2018-09-05T13:42:33.789Z,11.30
2018-09-05T13:45:01.896Z,10.98
2018-09-05T13:47:29.968Z,11.57
2018-09-05T13:49:58.088Z,12.03
2018-09-05T13:52:26.183Z,10.93
2018-09-05T13:54:54.275Z,11.73
2018-09-05T13:57:22.347Z,12.20
2018-09-05T13:59:50.432Z,12.78
2018-09-05T14:02:18.507Z,10.98
2018-09-05T14:04:46.669Z,12.60
2018-09-05T14:07:14.743Z,11.90
2018-09-05T14:09:42.995Z,12.35
2018-09-05T14:12:11.079Z,12.25
2018-09-05T14:14:39.156Z,12.37
2018-09-05T14:17:07.230Z,10.32
2018-09-05T14:19:35.453Z,12.45
2018-09-05T14:22:03.510Z,12.07
2018-09-05T14:24:31.626Z,13.38
2018-09-05T14:26:59.896Z,11.12
2018-09-05T14:29:27.966Z,14.50
2018-09-05T14:31:56.043Z,12.13
2018-09-05T14:34:24.158Z,12.23
2018-09-05T14:36:52.352Z,12.13
2018-09-05T14:39:20.466Z,11.63
2018-09-05T14:41:48.794Z,12.43
2018-09-05T14:44:16.914Z,13.90
2018-09-05T14:46:44.994Z,14.75
2018-09-05T14:49:13.088Z,12.47
2018-09-05T14:51:42.174Z,15.13
2018-09-05T14:54:10.328Z,15.58
2018-09-05T14:56:38.347Z,14.00
2018-09-05T14:59:06.576Z,15.32
2018-09-05T15:01:34.664Z,13.62
2018-09-05T15:04:02.722Z,15.17
2018-09-05T15:06:30.887Z,14.43
2018-09-05T15:08:58.928Z,15.63
2018-09-05T15:11:27.079Z,16.12
2018-09-05T15:13:55.182Z,15.45
2018-09-05T15:16:23.275Z,16.85
2018-09-05T15:18:51.631Z,15.88
2018-09-05T15:21:19.723Z,13.88
2018-09-05T15:23:47.805Z,16.30
2018-09-05T15:26:15.873Z,16.02
2018-09-05T15:28:43.981Z,15.25
2018-09-05T15:31:12.061Z,16.75
2018-09-05T15:33:40.148Z,16.60
2018-09-05T15:36:08.258Z,14.35
2018-09-05T15:38:36.384Z,19.07
2018-09-05T15:41:04.485Z,17.07
2018-09-05T15:43:32.566Z,16.17
2018-09-05T15:46:00.674Z,13.90
2018-09-05T15:48:28.767Z,15.53
2018-09-05T15:50:56.836Z,15.55
2018-09-05T15:53:24.908Z,14.50
2018-09-05T15:55:53.021Z,14.63
2018-09-05T15:58:21.153Z,14.65
2018-09-05T16:00:49.231Z,15.30
2018-09-05T16:03:17.326Z,15.78
2018-09-05T16:05:45.438Z,17.15
2018-09-05T16:08:13.632Z,15.43
2018-09-05T16:10:41.784Z,18.77
2018-09-05T16:13:09.935Z,16.37
2018-09-05T16:15:38.266Z,13.30
2018-09-05T16:18:06.145Z,14.75
2018-09-05T16:20:34.442Z,15.23
2018-09-05T16:23:02.562Z,14.00
2018-09-05T16:25:30.883Z,15.35
2018-09-05T16:27:59.055Z,14.73
2018-09-05T16:30:27.188Z,14.13
2018-09-05T16:32:55.339Z,15.30
2018-09-05T16:35:23.472Z,14.25
2018-09-05T16:37:51.558Z,16.23
2018-09-05T16:40:19.667Z,14.73
2018-09-05T16:42:47.735Z,14.43
2018-09-05T16:45:15.819Z,15.03
2018-09-05T16:47:43.986Z,15.95
2018-09-05T16:50:12.102Z,13.72
2018-09-05T16:52:40.245Z,15.50
2018-09-05T16:55:08.332Z,15.58
2018-09-05T16:57:36.425Z,13.78
2018-09-05T17:00:04.875Z,14.40
2018-09-05T17:02:32.946Z,14.90
2018-09-05T17:05:01.017Z,12.47
2018-09-05T17:07:29.183Z,15.05
2018-09-05T17:09:57.296Z,13.53
2018-09-05T17:12:25.457Z,12.82
2018-09-05T17:14:53.582Z,12.93
2018-09-05T17:17:21.671Z,13.30
2018-09-05T17:19:49.861Z,12.28
2018-09-05T17:22:17.953Z,12.25
2018-09-05T17:24:46.249Z,12.40
2018-09-05T17:27:14.796Z,12.07
2018-09-05T17:29:42.963Z,11.85
2018-09-05T17:32:11.055Z,11.68
2018-09-05T17:34:39.134Z,13.05
2018-09-05T17:37:07.247Z,12.98
2018-09-05T17:39:35.355Z,10.08
2018-09-05T17:42:03.480Z,14.45
2018-09-05T17:44:31.626Z,14.18
2018-09-05T17:47:00.062Z,11.85
2018-09-05T17:49:28.203Z,13.55
2018-09-05T17:51:56.315Z,13.28
2018-09-05T17:54:24.423Z,13.15
2018-09-05T17:56:52.563Z,12.40
2018-09-05T17:59:20.691Z,12.98
2018-09-05T18:01:48.948Z,13.05
2018-09-05T18:04:17.045Z,14.28
2018-09-05T18:06:45.295Z,15.30
2018-09-05T18:09:13.458Z,14.33
2018-09-05T18:11:41.769Z,13.62
2018-09-05T18:14:10.027Z,17.37
2018-09-05T18:16:38.164Z,16.57
2018-09-05T18:19:06.261Z,13.90
2018-09-05T18:21:34.348Z,14.13
2018-09-05T18:24:02.442Z,14.07
2018-09-05T18:26:30.762Z,14.38
2018-09-05T18:28:59.016Z,12.53
2018-09-05T18:31:27.161Z,13.18
2018-09-05T18:33:55.383Z,13.68
2018-09-05T18:36:23.408Z,13.70
2018-09-05T18:38:51.534Z,13.62
2018-09-05T18:41:19.618Z,14.53
2018-09-05T18:43:47.702Z,13.10
2018-09-05T18:46:15.848Z,13.80
2018-09-05T18:48:44.007Z,16.30
2018-09-05T18:51:12.096Z,13.18
2018-09-05T18:53:40.178Z,14.28
2018-09-05T18:56:08.294Z,13.75
2018-09-05T18:58:36.363Z,14.47
2018-09-05T19:01:04.562Z,13.65
2018-09-05T19:03:32.643Z,14.15
2018-09-05T19:06:00.740Z,14.07
2018-09-05T19:08:28.898Z,14.35
2018-09-05T19:10:56.940Z,15.18
2018-09-05T19:13:25.047Z,15.15
2018-09-05T19:15:53.147Z,15.53
2018-09-05T19:18:21.271Z,16.42
2018-09-05T19:20:49.335Z,18.17
2018-09-05T19:23:17.402Z,15.25
2018-09-05T19:25:45.490Z,14.95
2018-09-05T19:28:13.620Z,16.42
2018-09-05T19:30:41.961Z,14.53
2018-09-05T19:33:10.022Z,14.55
2018-09-05T19:35:38.237Z,16.12
2018-09-05T19:38:06.264Z,15.38
2018-09-05T19:40:34.375Z,17.60
2018-09-05T19:43:02.488Z,15.00
2018-09-05T19:45:30.571Z,16.27
2018-09-05T19:47:58.667Z,16.57
2018-09-05T19:50:26.841Z,16.55
2018-09-05T19:52:54.918Z,16.05
2018-09-05T19:55:23.016Z,16.00
2018-09-05T19:57:51.177Z,17.05
2018-09-05T20:00:19.267Z,17.23
2018-09-05T20:02:47.360Z,15.78
2018-09-05T20:05:15.477Z,16.90
2018-09-05T20:07:43.610Z,16.90
2018-09-05T20:10:11.675Z,15.98
2018-09-05T20:12:39.738Z,15.65
2018-09-05T20:15:07.812Z,16.97
2018-09-05T20:17:35.899Z,16.23
2018-09-05T20:20:04.231Z,15.80
2018-09-05T20:22:32.299Z,17.48
2018-09-05T20:25:00.375Z,16.42
2018-09-05T20:27:28.473Z,15.00
2018-09-05T20:29:57.016Z,17.37
2018-09-05T20:32:25.323Z,17.30
2018-09-05T20:34:53.430Z,15.93
2018-09-05T20:37:21.557Z,18.23
2018-09-05T20:39:49.626Z,18.15
2018-09-05T20:42:17.723Z,17.32
2018-09-05T20:44:45.795Z,16.67
2018-09-05T20:47:13.874Z,17.73
2018-09-05T20:49:42.196Z,16.75
2018-09-05T20:52:10.341Z,16.52
2018-09-05T20:54:38.421Z,22.10
2018-09-05T20:57:06.474Z,18.90
2018-09-05T20:59:34.552Z,17.60
2018-09-05T21:02:02.623Z,17.73
2018-09-05T21:04:30.686Z,17.37
2018-09-05T21:06:59.071Z,17.50
2018-09-05T21:09:27.179Z,18.27
2018-09-05T21:11:55.242Z,16.87
2018-09-05T21:14:23.335Z,17.40
2018-09-05T21:16:51.566Z,17.80
2018-09-05T21:19:19.642Z,17.75
2018-09-05T21:21:47.732Z,17.67
2018-09-05T21:24:15.806Z,17.80
2018-09-05T21:26:43.890Z,18.40
2018-09-05T21:29:12.002Z,17.30
2018-09-05T21:31:40.160Z,22.07
2018-09-05T21:34:08.243Z,17.52
2018-09-05T21:36:36.320Z,18.00
2018-09-05T21:39:05.907Z,18.15
2018-09-05T21:41:33.923Z,18.02
2018-09-05T21:44:02.030Z,18.37
2018-09-05T21:46:30.171Z,19.65
2018-09-05T21:48:58.309Z,18.57
2018-09-05T21:51:26.629Z,19.17
2018-09-05T21:53:54.711Z,16.62
2018-09-05T21:56:22.780Z,19.70
2018-09-05T21:58:50.880Z,18.73
2018-09-05T22:01:20.001Z,19.30
2018-09-05T22:03:49.415Z,17.75
2018-09-05T22:06:17.498Z,19.30
2018-09-05T22:08:45.751Z,17.05
2018-09-05T22:11:19.367Z,17.02
2018-09-05T22:13:47.790Z,19.92
2018-09-05T22:16:15.841Z,18.17
2018-09-05T22:18:43.954Z,18.20
2018-09-05T22:21:12.068Z,19.25
2018-09-05T22:23:40.158Z,19.05
2018-09-05T22:26:08.232Z,19.48
2018-09-05T22:28:36.362Z,18.30
2018-09-05T22:31:04.434Z,18.30
2018-09-05T22:33:32.533Z,18.20
2018-09-05T22:36:00.602Z,19.32
2018-09-05T22:38:28.723Z,19.30
2018-09-05T22:40:56.806Z,23.60
2018-09-05T22:43:37.322Z,19.80
2018-09-05T22:46:16.898Z,18.27
2018-09-05T22:49:12.431Z,18.20
2018-09-05T22:54:02.723Z,19.85
2018-09-05T22:57:21.974Z,20.68
2018-09-05T23:00:03.452Z,20.00
2018-09-05T23:02:48.478Z,19.87
2018-09-05T23:05:30.866Z,19.62
2018-09-05T23:08:38.491Z,18.85
2018-09-05T23:11:18.647Z,23.73
2018-09-05T23:13:58.906Z,22.65
2018-09-05T23:16:38.788Z,19.67
2018-09-05T23:19:23.191Z,17.45
2018-09-05T23:21:51.290Z,16.87
2018-09-05T23:24:19.366Z,17.48
2018-09-05T23:26:47.449Z,18.12
2018-09-05T23:29:15.533Z,17.20
2018-09-05T23:31:43.618Z,18.80
2018-09-05T23:34:11.706Z,17.82
2018-09-05T23:36:39.787Z,18.42
2018-09-05T23:39:08.527Z,17.55
2018-09-05T23:41:36.598Z,17.40
2018-09-05T23:44:04.682Z,17.85
2018-09-05T23:46:33.000Z,22.33
2018-09-05T23:49:01.087Z,20.90
2018-09-05T23:51:30.562Z,16.75
2018-09-05T23:53:58.650Z,16.75
2018-09-05T23:56:26.758Z,16.00
2018-09-05T23:58:54.862Z,14.78
